Erkan Muldur

Olheiro - Fenerbahce
20 Fev 2028
Domingo
Processo

Personalidade

Adaptabilidade (17) Ambição (8) Controvérsia (19) Lealdade (4) Pressão (8) Profissionalismo (14) Espírito Esportivo (15) Temperamento (7)

Perfil

Estilo de Treinamento Democrático
Licença Continental A
Determinação 11
Gestão de Pessoas 8
Motivação 9
Disciplina 7
Satisfação no Trabalho
100%
Fadiga
0%
Função Olheiro
Salário 37.3K p/s
Contrato 14.03.2030

Desempenho

Comportamento Bom
Eficácia do Treinamento
50%
Desenvolvimento do Jogador
60%
Prevenção de Lesões
45%
Implementação Tática
50%

Eventos Recentes

Participou de uma reunião de recrutamento 14d atrás
Recomendou um alvo de transferência 14d atrás
Participou de uma reunião de recrutamento 21d atrás
Recomendou um alvo de transferência 21d atrás
Recomendou um alvo de transferência 21d atrás
Recomendou um alvo de transferência 21d atrás
Observou uma partida 21d atrás
Observou uma partida 28d atrás

Monitorando agora

99
Jogador Clube Status Habilidade Confiança Observado Última observação Último voto
Pedro Baltika Ativo 141 / 137 40% 1 07.01.2028 -
Rayane Bounida Ajax Ativo 135 / 138 40% 1 07.01.2028 -
Caleb Yirenkyi Coventry City Ativo 138 / 148 40% 1 07.01.2028 -
Mateus Mané Liverpool Ativo 139 / 146 40% 1 04.01.2028 -
Josh King Fulham Ativo 147 / 152 40% 1 04.01.2028 -
Gaïus Makouta Alanyaspor Ativo 127 / 129 86% 1 02.01.2028 Aprovar
Pascal Loretz Wolverhampton Ativo 139 / 142 40% 1 02.01.2028 -
Danilo Botafogo Ativo 143 / 142 40% 2 01.01.2028 -
Ruan Alanyaspor Ativo 130 / 131 86% 1 01.01.2028 Aprovar
Ethan Galbraith Swansea City Ativo 136 / 139 40% 1 01.01.2028 -
Jake O'Brien Everton Ativo 149 / 153 40% 1 01.01.2028 -
Lucas Piton Vasco da Gama Ativo 137 / 135 40% 2 30.08.2027 -
Kevin Lomónaco Independiente Ativo 133 / 138 40% 3 30.08.2027 -
Marcos Antonio Sport Recife Ativo 144 / 140 40% 3 29.08.2027 -
Gabriel Rodriguez La Equidad Ativo 142 / 143 40% 3 29.08.2027 -
Boubacar Kamara Aston Villa Ativo 170 / 163 40% 2 28.08.2027 -
Kobbie Mainoo Manchester United Ativo 160 / 167 40% 1 28.08.2027 -
Matías Palacios Al Ain Ativo 138 / 136 40% 4 27.08.2027 -
Wesley Fofana Chelsea Ativo 165 / 165 40% 1 26.08.2027 -
Jan Paul van Hecke Tottenham Ativo 164 / 162 40% 1 26.08.2027 -
Fredrik Sjøvold Bodo/Glimt Ativo 133 / 136 40% 1 24.08.2027 -
Lukas Ullrich Borussia Mönchengladbach Ativo 132 / 134 40% 2 23.08.2027 -
Raphael Onyedika Eintracht Frankfurt Ativo 147 / 147 40% 1 23.08.2027 -
Martinelli Fluminense Ativo 143 / 137 40% 1 23.08.2027 -
Nicolás Fernández Mercau New York City Ativo 133 / 133 40% 1 23.08.2027 -
Alexandro Bernabei Internacional Ativo 137 / 133 40% 1 23.08.2027 -
Luciano Juba Bahia Ativo 137 / 136 40% 1 21.08.2027 -
Brooke Norton-Cuffy Genoa Ativo 146 / 148 40% 6 20.08.2027 -
Oumar Solet Udinese Ativo 148 / 152 40% 1 20.08.2027 -
Juan Miranda Bologna Ativo 147 / 140 40% 1 20.08.2027 -
Michel Ndary Adopo Cagliari Ativo 145 / 146 40% 8 19.08.2027 -
Alessandro Bianco Modena Ativo 136 / 135 40% 3 18.08.2027 -
Raoul Bellanova Atalanta Ativo 154 / 152 40% 3 18.08.2027 -
Kian Fitz-Jim Torino Ativo 137 / 148 40% 1 18.08.2027 -
Arthur Atta Fiorentina Ativo 150 / 148 40% 5 17.08.2027 -
Nuno Tavares Lazio Ativo 147 / 145 40% 3 16.08.2027 -
Matteo Lovato Padova Ativo 131 / 130 40% 2 16.08.2027 -
Mehdi Dorval Catanzaro Ativo 132 / 135 40% 1 16.08.2027 -
Andrea Carboni Monza Ativo 137 / 137 40% 3 15.08.2027 -
Curtis Jones Inter Ativo 159 / 154 40% 1 15.08.2027 -
Josh Doig Sassuolo Ativo 142 / 135 40% 7 13.08.2027 -
Adrián Bernabé Parma Ativo 136 / 137 40% 1 12.08.2027 -
Nicolò Bertola Udinese Ativo 137 / 143 40% 7 11.08.2027 -
Luke McNally Bristol City Ativo 137 / 130 40% 2 08.08.2027 -
Sondre Langås Derby County Ativo 137 / 128 40% 1 08.08.2027 -
Lewis Ferguson Bologna Ativo 150 / 144 40% 1 07.08.2027 -
Robin Roefs Sunderland Ativo 146 / 156 40% 4 06.08.2027 -
Shea Charles Southampton Ativo 146 / 146 40% 6 03.08.2027 -
Axel Tape TSG Hoffenheim Ativo 133 / 138 40% 2 02.08.2027 -
Ishé Samuels-Smith Chelsea Ativo 120 / 122 40% 1 02.08.2027 -
Aidan Morris Middlesbrough Ativo 136 / 136 40% 5 01.08.2027 -
David Møller Wolfe Wolverhampton Ativo 140 / 136 40% 5 30.07.2027 -
Jackson Tchatchoua Wolverhampton Ativo 139 / 145 40% 5 30.07.2027 -
Jayden Bogle Leeds United Ativo 141 / 147 40% 3 29.07.2027 -
Alex Tóth Bournemouth Ativo 124 / 134 40% 2 28.07.2027 -
Edoardo Bove Watford Ativo 135 / 134 40% 2 26.07.2027 -
Rayan Bournemouth Ativo 133 / 150 40% 2 24.07.2027 -
Amir Mohammad Razzaghinia Esteghlal Ativo 114 / 118 40% 1 24.07.2027 -
Claudio Echeverri Manchester City Ativo 127 / 136 40% 1 24.07.2027 -
Mattia Viti Sampdoria Ativo 141 / 137 40% 2 20.07.2027 -
Pedro Henrique Shakhtar Ativo 131 / 139 40% 4 19.07.2027 -
Tariq Lamptey Queens Park Rangers Ativo 133 / 142 40% 3 10.07.2027 -
Mike Penders Chelsea Ativo 134 / 147 40% 2 08.07.2027 -
Jordan Zemura Udinese Ativo 142 / 133 40% 1 08.07.2027 -
Saïmon Bouabré Al-Hilal Ativo 133 / 131 40% 2 06.07.2027 -
Matheus Gonçalves Al-Ahli Ativo 127 / 129 40% 2 06.07.2027 -
James Trafford Leeds United Ativo 146 / 146 40% 6 04.07.2027 -
Javi Rueda Celta Ativo 138 / 133 40% 1 04.07.2027 -
Jaydee Canvot Crystal Palace Ativo 133 / 146 40% 1 30.06.2027 -
Matteo Gabbia AC Milan Ativo 150 / 150 40% 1 27.06.2027 -
Dan Ballard Sunderland Ativo 142 / 142 40% 2 26.06.2027 -
Enis Destan Konyaspor Ativo 118 / 120 83% 1 21.06.2027 Aprovar
Cheick Doucouré Crystal Palace Ativo 144 / 142 40% 2 20.06.2027 -
Radek Vítek Middlesbrough Ativo 147 / 136 40% 5 18.06.2027 -
Kristoffer Lund Birmingham Ativo 126 / 125 40% 1 31.01.2027 -
Ronnie Edwards Queens Park Rangers Ativo 134 / 136 40% 1 31.01.2027 -
Kostantis Tzolakis Hull City Ativo 145 / 137 40% 3 30.01.2027 -
Caspar Jander Southampton Ativo 129 / 133 40% 2 26.01.2027 -
Mahamadou Doumbia Al-Ittihad Ativo 131 / 135 40% 2 26.01.2027 -
Trai Hume Sunderland Ativo 130 / 127 40% 1 26.01.2027 -
Marlon Gomes Shakhtar Ativo 139 / 131 40% 1 20.01.2027 -
Callum Doyle Wrexham Ativo 129 / 137 40% 3 19.01.2027 -
Yasin Ayari Brighton Ativo 145 / 146 40% 2 16.01.2027 -
Agustín Giay Palmeiras Ativo 130 / 132 40% 1 16.01.2027 -
Jacques Ekomié Wrexham Ativo 131 / 135 40% 1 14.01.2027 -
Bosun Lawal Stoke City Ativo 128 / 131 40% 1 10.01.2027 -
Ki-Jana Hoever Sparta Prague Ativo 131 / 133 40% 1 09.01.2027 -
Rodrigo Huescas FC Copenhagen Ativo 129 / 129 40% 2 02.01.2027 -
Salvador Blopá Sporting CP Ativo 114 / 125 40% 1 02.01.2027 -
Tom Rothe Union Berlin Ativo 121 / 132 40% 1 28.08.2026 -
Valentin Atangana Al-Ahli Ativo 129 / 129 40% 1 27.08.2026 -
Relebohile Mofokeng Orlando Pirates Ativo 112 / 127 40% 1 27.08.2026 -
Mattia Zanotti Lugano Ativo 133 / 132 40% 2 24.08.2026 -
Andy Diouf Inter Ativo 135 / 144 40% 1 24.08.2026 -
Riku Handa Gamba Osaka Ativo 135 / 127 40% 1 21.08.2026 -
Santiago Sosa Yung Valencia Ativo 121 / 126 40% 1 18.08.2026 -
Adriano Jagušić Panathinaikos Ativo 116 / 123 40% 1 18.08.2026 -
Mauricio Amaro Atlanta United FC Ativo 127 / 125 40% 1 15.08.2026 -
Sampson Dweh Viktoria Plzen Ativo 131 / 136 40% 1 03.08.2026 -